sensor_id;sensor_type;location;lat;lon;timestamp;pressure;altitude;pressure_sealevel;temperature;humidity
54262;BME280;40174;52.364;6.452;2023-04-15T00:00:22;100697.84;;;5.87;100.00
54262;BME280;40174;52.364;6.452;2023-04-15T00:02:48;100698.22;;;5.80;100.00
54262;BME280;40174;52.364;6.452;2023-04-15T00:05:15;100702.00;;;5.76;100.00
54262;BME280;40174;52.364;6.452;2023-04-15T00:07:41;100694.28;;;5.73;100.00
54262;BME280;40174;52.364;6.452;2023-04-15T00:10:07;100689.25;;;5.70;100.00
54262;BME280;40174;52.364;6.452;2023-04-15T00:12:34;100697.28;;;5.67;100.00
54262;BME280;40174;52.364;6.452;2023-04-15T00:15:01;100693.19;;;5.63;100.00
54262;BME280;40174;52.364;6.452;2023-04-15T00:17:29;100696.25;;;5.55;100.00
54262;BME280;40174;52.364;6.452;2023-04-15T00:19:56;100691.13;;;5.54;100.00
54262;BME280;40174;52.364;6.452;2023-04-15T00:22:23;100688.88;;;5.48;100.00
54262;BME280;40174;52.364;6.452;2023-04-15T00:24:51;100693.53;;;5.42;100.00
54262;BME280;40174;52.364;6.452;2023-04-15T00:27:17;100690.09;;;5.42;100.00
54262;BME280;40174;52.364;6.452;2023-04-15T00:29:44;100687.88;;;5.36;100.00
54262;BME280;40174;52.364;6.452;2023-04-15T00:32:11;100689.63;;;5.35;100.00
54262;BME280;40174;52.364;6.452;2023-04-15T00:34:40;100699.34;;;5.33;100.00
54262;BME280;40174;52.364;6.452;2023-04-15T00:37:07;100695.41;;;5.26;100.00
54262;BME280;40174;52.364;6.452;2023-04-15T00:39:34;100698.16;;;5.25;100.00
54262;BME280;40174;52.364;6.452;2023-04-15T00:42:00;100696.66;;;5.20;100.00
54262;BME280;40174;52.364;6.452;2023-04-15T00:44:27;100706.44;;;5.17;100.00
54262;BME280;40174;52.364;6.452;2023-04-15T00:46:53;100703.28;;;5.12;100.00
54262;BME280;40174;52.364;6.452;2023-04-15T00:49:20;100705.97;;;5.10;100.00
54262;BME280;40174;52.364;6.452;2023-04-15T00:51:49;100704.19;;;5.11;100.00
54262;BME280;40174;52.364;6.452;2023-04-15T00:54:15;100709.53;;;5.09;100.00
54262;BME280;40174;52.364;6.452;2023-04-15T00:56:42;100700.16;;;5.05;100.00
54262;BME280;40174;52.364;6.452;2023-04-15T00:59:08;100707.19;;;5.05;100.00
54262;BME280;40174;52.364;6.452;2023-04-15T01:01:35;100704.84;;;5.00;100.00
54262;BME280;40174;52.364;6.452;2023-04-15T01:04:02;100703.50;;;4.93;100.00
54262;BME280;40174;52.364;6.452;2023-04-15T01:06:29;100696.84;;;4.87;100.00
54262;BME280;40174;52.364;6.452;2023-04-15T01:08:57;100700.41;;;4.86;100.00
54262;BME280;40174;52.364;6.452;2023-04-15T01:11:24;100697.97;;;4.83;100.00
54262;BME280;40174;52.364;6.452;2023-04-15T01:13:52;100706.78;;;4.82;100.00
54262;BME280;40174;52.364;6.452;2023-04-15T01:16:20;100705.16;;;4.79;100.00
54262;BME280;40174;52.364;6.452;2023-04-15T01:18:47;100712.34;;;4.76;100.00
54262;BME280;40174;52.364;6.452;2023-04-15T01:21:13;100713.13;;;4.78;100.00
54262;BME280;40174;52.364;6.452;2023-04-15T01:23:40;100703.75;;;4.74;100.00
54262;BME280;40174;52.364;6.452;2023-04-15T01:26:09;100710.00;;;4.71;100.00
54262;BME280;40174;52.364;6.452;2023-04-15T01:28:37;100703.25;;;4.67;100.00
54262;BME280;40174;52.364;6.452;2023-04-15T01:31:04;100703.44;;;4.64;100.00
54262;BME280;40174;52.364;6.452;2023-04-15T01:33:31;100711.28;;;4.64;100.00
54262;BME280;40174;52.364;6.452;2023-04-15T01:35:58;100701.75;;;4.63;100.00
54262;BME280;40174;52.364;6.452;2023-04-15T01:38:25;100706.22;;;4.61;100.00
54262;BME280;40174;52.364;6.452;2023-04-15T01:40:52;100704.53;;;4.60;100.00
54262;BME280;40174;52.364;6.452;2023-04-15T01:43:20;100706.66;;;4.53;100.00
54262;BME280;40174;52.364;6.452;2023-04-15T01:45:46;100708.53;;;4.51;100.00
54262;BME280;40174;52.364;6.452;2023-04-15T01:48:13;100705.41;;;4.45;100.00
54262;BME280;40174;52.364;6.452;2023-04-15T01:50:39;100709.88;;;4.43;100.00
54262;BME280;40174;52.364;6.452;2023-04-15T01:53:06;100701.00;;;4.45;100.00
54262;BME280;40174;52.364;6.452;2023-04-15T01:55:33;100718.84;;;4.38;100.00
54262;BME280;40174;52.364;6.452;2023-04-15T01:58:00;100717.06;;;4.39;100.00
54262;BME280;40174;52.364;6.452;2023-04-15T02:00:28;100721.44;;;4.38;100.00
54262;BME280;40174;52.364;6.452;2023-04-15T02:02:54;100718.34;;;4.32;100.00
54262;BME280;40174;52.364;6.452;2023-04-15T02:05:24;100710.66;;;4.29;100.00
54262;BME280;40174;52.364;6.452;2023-04-15T02:07:50;100724.75;;;4.26;100.00
54262;BME280;40174;52.364;6.452;2023-04-15T02:10:17;100719.59;;;4.25;100.00
54262;BME280;40174;52.364;6.452;2023-04-15T02:12:44;100715.28;;;4.24;100.00
54262;BME280;40174;52.364;6.452;2023-04-15T02:15:11;100725.88;;;4.22;100.00
54262;BME280;40174;52.364;6.452;2023-04-15T02:17:39;100730.34;;;4.20;100.00
54262;BME280;40174;52.364;6.452;2023-04-15T02:20:10;100721.78;;;4.16;100.00
54262;BME280;40174;52.364;6.452;2023-04-15T02:22:36;100724.41;;;4.16;100.00
54262;BME280;40174;52.364;6.452;2023-04-15T02:25:03;100729.75;;;4.15;100.00
54262;BME280;40174;52.364;6.452;2023-04-15T02:27:30;100727.13;;;4.15;100.00
54262;BME280;40174;52.364;6.452;2023-04-15T02:29:57;100733.72;;;4.06;100.00
54262;BME280;40174;52.364;6.452;2023-04-15T02:32:23;100738.06;;;4.06;100.00
54262;BME280;40174;52.364;6.452;2023-04-15T02:34:54;100732.25;;;4.01;100.00
54262;BME280;40174;52.364;6.452;2023-04-15T02:37:21;100735.81;;;4.00;100.00
54262;BME280;40174;52.364;6.452;2023-04-15T02:39:48;100742.81;;;3.99;100.00
54262;BME280;40174;52.364;6.452;2023-04-15T02:42:16;100743.72;;;3.98;100.00
54262;BME280;40174;52.364;6.452;2023-04-15T02:44:43;100742.91;;;3.98;100.00
54262;BME280;40174;52.364;6.452;2023-04-15T02:47:09;100747.28;;;3.97;100.00
54262;BME280;40174;52.364;6.452;2023-04-15T02:49:36;100748.38;;;3.93;100.00
54262;BME280;40174;52.364;6.452;2023-04-15T02:52:03;100754.63;;;3.90;100.00
54262;BME280;40174;52.364;6.452;2023-04-15T02:54:30;100753.94;;;3.87;100.00
54262;BME280;40174;52.364;6.452;2023-04-15T02:56:58;100761.00;;;3.85;100.00
54262;BME280;40174;52.364;6.452;2023-04-15T02:59:26;100755.84;;;3.83;100.00
54262;BME280;40174;52.364;6.452;2023-04-15T03:01:52;100752.41;;;3.83;100.00
54262;BME280;40174;52.364;6.452;2023-04-15T03:04:20;100754.19;;;3.82;100.00
54262;BME280;40174;52.364;6.452;2023-04-15T03:06:47;100750.88;;;3.79;100.00
54262;BME280;40174;52.364;6.452;2023-04-15T03:09:14;100766.56;;;3.79;100.00
54262;BME280;40174;52.364;6.452;2023-04-15T03:11:42;100757.88;;;3.78;100.00
54262;BME280;40174;52.364;6.452;2023-04-15T03:14:08;100759.66;;;3.78;100.00
54262;BME280;40174;52.364;6.452;2023-04-15T03:16:40;100774.50;;;3.77;100.00
54262;BME280;40174;52.364;6.452;2023-04-15T03:19:06;100769.34;;;3.75;100.00
54262;BME280;40174;52.364;6.452;2023-04-15T03:21:33;100767.66;;;3.74;100.00
54262;BME280;40174;52.364;6.452;2023-04-15T03:23:59;100772.03;;;3.74;100.00
54262;BME280;40174;52.364;6.452;2023-04-15T03:26:28;100773.22;;;3.68;100.00
54262;BME280;40174;52.364;6.452;2023-04-15T03:28:59;100781.88;;;3.69;100.00
54262;BME280;40174;52.364;6.452;2023-04-15T03:31:26;100776.72;;;3.67;100.00
54262;BME280;40174;52.364;6.452;2023-04-15T03:33:53;100781.06;;;3.68;100.00
54262;BME280;40174;52.364;6.452;2023-04-15T03:36:19;100777.66;;;3.66;100.00
54262;BME280;40174;52.364;6.452;2023-04-15T03:38:46;100778.75;;;3.62;100.00
54262;BME280;40174;52.364;6.452;2023-04-15T03:41:13;100781.38;;;3.62;100.00
54262;BME280;40174;52.364;6.452;2023-04-15T03:43:41;100781.38;;;3.62;100.00
54262;BME280;40174;52.364;6.452;2023-04-15T03:46:07;100785.88;;;3.59;100.00
54262;BME280;40174;52.364;6.452;2023-04-15T03:48:34;100789.44;;;3.58;100.00
54262;BME280;40174;52.364;6.452;2023-04-15T03:51:00;100793.91;;;3.56;100.00
54262;BME280;40174;52.364;6.452;2023-04-15T03:53:27;100795.69;;;3.55;100.00
54262;BME280;40174;52.364;6.452;2023-04-15T03:55:53;100793.06;;;3.55;100.00
54262;BME280;40174;52.364;6.452;2023-04-15T03:58:20;100797.53;;;3.53;100.00
54262;BME280;40174;52.364;6.452;2023-04-15T04:00:47;100797.44;;;3.54;100.00
54262;BME280;40174;52.364;6.452;2023-04-15T04:03:14;100802.75;;;3.53;100.00
54262;BME280;40174;52.364;6.452;2023-04-15T04:05:40;100802.81;;;3.51;100.00
54262;BME280;40174;52.364;6.452;2023-04-15T04:08:08;100806.28;;;3.52;100.00
54262;BME280;40174;52.364;6.452;2023-04-15T04:10:37;100815.88;;;3.51;100.00
54262;BME280;40174;52.364;6.452;2023-04-15T04:13:04;100810.00;;;3.48;100.00
54262;BME280;40174;52.364;6.452;2023-04-15T04:15:30;100823.06;;;3.48;100.00
54262;BME280;40174;52.364;6.452;2023-04-15T04:17:58;100815.34;;;3.45;100.00
54262;BME280;40174;52.364;6.452;2023-04-15T04:20:24;100822.28;;;3.46;100.00
54262;BME280;40174;52.364;6.452;2023-04-15T04:22:51;100824.97;;;3.44;100.00
54262;BME280;40174;52.364;6.452;2023-04-15T04:25:17;100826.56;;;3.47;100.00
54262;BME280;40174;52.364;6.452;2023-04-15T04:27:44;100831.72;;;3.48;100.00
54262;BME280;40174;52.364;6.452;2023-04-15T04:30:10;100837.78;;;3.49;100.00
54262;BME280;40174;52.364;6.452;2023-04-15T04:32:37;100834.28;;;3.50;100.00
54262;BME280;40174;52.364;6.452;2023-04-15T04:35:05;100842.19;;;3.48;100.00
54262;BME280;40174;52.364;6.452;2023-04-15T04:37:31;100833.66;;;3.45;100.00
54262;BME280;40174;52.364;6.452;2023-04-15T04:39:58;100845.81;;;3.46;100.00
54262;BME280;40174;52.364;6.452;2023-04-15T04:42:24;100839.75;;;3.45;100.00
54262;BME280;40174;52.364;6.452;2023-04-15T04:44:51;100839.81;;;3.44;100.00
54262;BME280;40174;52.364;6.452;2023-04-15T04:47:17;100836.34;;;3.43;100.00
54262;BME280;40174;52.364;6.452;2023-04-15T04:49:44;100841.81;;;3.39;100.00
54262;BME280;40174;52.364;6.452;2023-04-15T04:52:11;100850.50;;;3.39;100.00
54262;BME280;40174;52.364;6.452;2023-04-15T04:54:38;100849.66;;;3.39;100.00
54262;BME280;40174;52.364;6.452;2023-04-15T04:57:04;100853.94;;;3.40;100.00
54262;BME280;40174;52.364;6.452;2023-04-15T04:59:32;100852.25;;;3.39;100.00
54262;BME280;40174;52.364;6.452;2023-04-15T05:01:58;100855.63;;;3.41;100.00
54262;BME280;40174;52.364;6.452;2023-04-15T05:04:25;100859.09;;;3.41;100.00
54262;BME280;40174;52.364;6.452;2023-04-15T05:06:51;100859.88;;;3.43;100.00
54262;BME280;40174;52.364;6.452;2023-04-15T05:09:19;100856.31;;;3.44;100.00
54262;BME280;40174;52.364;6.452;2023-04-15T05:11:45;100857.16;;;3.45;100.00
54262;BME280;40174;52.364;6.452;2023-04-15T05:14:12;100863.25;;;3.45;100.00
54262;BME280;40174;52.364;6.452;2023-04-15T05:16:38;100857.25;;;3.43;100.00
54262;BME280;40174;52.364;6.452;2023-04-15T05:19:04;100857.94;;;3.47;100.00
54262;BME280;40174;52.364;6.452;2023-04-15T05:21:31;100856.94;;;3.49;100.00
54262;BME280;40174;52.364;6.452;2023-04-15T05:23:58;100861.25;;;3.50;100.00
54262;BME280;40174;52.364;6.452;2023-04-15T05:26:26;100866.31;;;3.53;100.00
54262;BME280;40174;52.364;6.452;2023-04-15T05:28:53;100860.94;;;3.57;100.00
54262;BME280;40174;52.364;6.452;2023-04-15T05:31:19;100866.84;;;3.60;100.00
54262;BME280;40174;52.364;6.452;2023-04-15T05:33:46;100871.06;;;3.63;100.00
54262;BME280;40174;52.364;6.452;2023-04-15T05:36:12;100869.16;;;3.66;100.00
54262;BME280;40174;52.364;6.452;2023-04-15T05:38:38;100873.16;;;3.73;100.00
54262;BME280;40174;52.364;6.452;2023-04-15T05:41:05;100875.59;;;3.77;100.00
54262;BME280;40174;52.364;6.452;2023-04-15T05:43:33;100886.59;;;3.83;100.00
54262;BME280;40174;52.364;6.452;2023-04-15T05:45:59;100889.84;;;3.88;100.00
54262;BME280;40174;52.364;6.452;2023-04-15T05:48:26;100896.50;;;3.94;100.00
54262;BME280;40174;52.364;6.452;2023-04-15T05:50:52;100891.13;;;3.97;100.00
54262;BME280;40174;52.364;6.452;2023-04-15T05:53:19;100903.09;;;4.01;100.00
54262;BME280;40174;52.364;6.452;2023-04-15T05:55:45;100895.13;;;4.04;100.00
54262;BME280;40174;52.364;6.452;2023-04-15T05:58:12;100908.09;;;4.06;100.00
54262;BME280;40174;52.364;6.452;2023-04-15T06:00:39;100908.84;;;4.08;100.00
54262;BME280;40174;52.364;6.452;2023-04-15T06:03:06;100912.19;;;4.11;100.00
54262;BME280;40174;52.364;6.452;2023-04-15T06:05:32;100926.09;;;4.12;100.00
54262;BME280;40174;52.364;6.452;2023-04-15T06:07:59;100928.47;;;4.16;100.00
54262;BME280;40174;52.364;6.452;2023-04-15T06:10:26;100927.56;;;4.18;100.00
54262;BME280;40174;52.364;6.452;2023-04-15T06:12:52;100926.63;;;4.19;100.00
54262;BME280;40174;52.364;6.452;2023-04-15T06:15:19;100934.34;;;4.22;100.00
54262;BME280;40174;52.364;6.452;2023-04-15T06:17:46;100939.38;;;4.25;100.00
54262;BME280;40174;52.364;6.452;2023-04-15T06:20:13;100948.09;;;4.25;100.00
54262;BME280;40174;52.364;6.452;2023-04-15T06:22:40;100957.53;;;4.28;100.00
54262;BME280;40174;52.364;6.452;2023-04-15T06:25:06;100946.16;;;4.29;100.00
54262;BME280;40174;52.364;6.452;2023-04-15T06:27:33;100950.38;;;4.31;100.00
54262;BME280;40174;52.364;6.452;2023-04-15T06:29:59;100952.81;;;4.34;100.00
54262;BME280;40174;52.364;6.452;2023-04-15T06:32:26;100954.38;;;4.38;100.00
54262;BME280;40174;52.364;6.452;2023-04-15T06:34:53;100956.81;;;4.42;100.00
54262;BME280;40174;52.364;6.452;2023-04-15T06:37:20;100965.44;;;4.44;100.00
54262;BME280;40174;52.364;6.452;2023-04-15T06:39:46;100963.50;;;4.47;100.00
54262;BME280;40174;52.364;6.452;2023-04-15T06:42:13;100967.66;;;4.51;100.00
54262;BME280;40174;52.364;6.452;2023-04-15T06:44:39;100971.72;;;4.57;100.00
54262;BME280;40174;52.364;6.452;2023-04-15T06:47:06;100971.31;;;4.65;100.00
54262;BME280;40174;52.364;6.452;2023-04-15T06:49:33;100978.00;;;4.70;100.00
54262;BME280;40174;52.364;6.452;2023-04-15T06:52:01;100977.75;;;4.75;100.00
54262;BME280;40174;52.364;6.452;2023-04-15T06:54:29;100975.88;;;4.77;100.00
54262;BME280;40174;52.364;6.452;2023-04-15T06:56:55;100977.09;;;4.87;100.00
54262;BME280;40174;52.364;6.452;2023-04-15T06:59:21;100981.16;;;4.93;100.00
54262;BME280;40174;52.364;6.452;2023-04-15T07:01:48;100978.19;;;4.99;100.00
54262;BME280;40174;52.364;6.452;2023-04-15T07:04:14;100976.84;;;5.08;100.00
54262;BME280;40174;52.364;6.452;2023-04-15T07:06:41;100985.03;;;5.17;100.00
54262;BME280;40174;52.364;6.452;2023-04-15T07:09:08;100981.06;;;5.26;100.00
54262;BME280;40174;52.364;6.452;2023-04-15T07:11:35;100986.81;;;5.33;100.00
54262;BME280;40174;52.364;6.452;2023-04-15T07:14:01;100980.97;;;5.44;100.00
54262;BME280;40174;52.364;6.452;2023-04-15T07:16:28;100991.72;;;5.55;100.00
54262;BME280;40174;52.364;6.452;2023-04-15T07:18:54;100996.63;;;5.61;100.00
54262;BME280;40174;52.364;6.452;2023-04-15T07:21:21;101002.09;;;5.72;100.00
54262;BME280;40174;52.364;6.452;2023-04-15T07:23:47;101012.22;;;5.78;100.00
54262;BME280;40174;52.364;6.452;2023-04-15T07:26:15;101005.44;;;5.90;100.00
54262;BME280;40174;52.364;6.452;2023-04-15T07:28:42;101014.59;;;5.99;100.00
54262;BME280;40174;52.364;6.452;2023-04-15T07:31:10;101012.25;;;6.09;100.00
54262;BME280;40174;52.364;6.452;2023-04-15T07:33:36;101017.63;;;6.21;100.00
54262;BME280;40174;52.364;6.452;2023-04-15T07:36:03;101005.75;;;6.30;100.00
54262;BME280;40174;52.364;6.452;2023-04-15T07:38:29;101018.31;;;6.39;100.00
54262;BME280;40174;52.364;6.452;2023-04-15T07:40:56;101017.66;;;6.50;100.00
54262;BME280;40174;52.364;6.452;2023-04-15T07:43:23;101024.16;;;6.59;100.00
54262;BME280;40174;52.364;6.452;2023-04-15T07:45:50;101034.22;;;6.66;100.00
54262;BME280;40174;52.364;6.452;2023-04-15T07:48:17;101030.19;;;6.75;100.00
54262;BME280;40174;52.364;6.452;2023-04-15T07:50:43;101034.19;;;6.81;100.00
54262;BME280;40174;52.364;6.452;2023-04-15T07:53:10;101040.66;;;6.90;100.00
54262;BME280;40174;52.364;6.452;2023-04-15T07:55:36;101040.38;;;6.94;100.00
54262;BME280;40174;52.364;6.452;2023-04-15T07:58:02;101050.31;;;7.03;100.00
54262;BME280;40174;52.364;6.452;2023-04-15T08:00:30;101044.31;;;7.16;100.00
54262;BME280;40174;52.364;6.452;2023-04-15T08:02:57;101042.25;;;7.21;100.00
54262;BME280;40174;52.364;6.452;2023-04-15T08:05:23;101046.28;;;7.26;100.00
54262;BME280;40174;52.364;6.452;2023-04-15T08:07:50;101052.00;;;7.33;100.00
54262;BME280;40174;52.364;6.452;2023-04-15T08:10:16;101044.53;;;7.40;100.00
54262;BME280;40174;52.364;6.452;2023-04-15T08:12:43;101055.44;;;7.48;100.00
54262;BME280;40174;52.364;6.452;2023-04-15T08:15:13;101054.09;;;7.55;100.00
54262;BME280;40174;52.364;6.452;2023-04-15T08:17:40;101057.16;;;7.62;100.00
54262;BME280;40174;52.364;6.452;2023-04-15T08:20:07;101067.09;;;7.71;100.00
54262;BME280;40174;52.364;6.452;2023-04-15T08:22:33;101060.84;;;7.86;100.00
54262;BME280;40174;52.364;6.452;2023-04-15T08:25:00;101065.81;;;7.91;100.00
54262;BME280;40174;52.364;6.452;2023-04-15T08:27:27;101072.25;;;8.00;100.00
54262;BME280;40174;52.364;6.452;2023-04-15T08:29:53;101065.25;;;8.13;100.00
54262;BME280;40174;52.364;6.452;2023-04-15T08:32:20;101066.13;;;8.26;100.00
54262;BME280;40174;52.364;6.452;2023-04-15T08:34:48;101069.84;;;8.37;100.00
54262;BME280;40174;52.364;6.452;2023-04-15T08:37:14;101063.66;;;8.50;100.00
54262;BME280;40174;52.364;6.452;2023-04-15T08:39:41;101051.34;;;8.64;100.00
54262;BME280;40174;52.364;6.452;2023-04-15T08:42:10;101059.13;;;8.78;100.00
54262;BME280;40174;52.364;6.452;2023-04-15T08:44:37;101060.19;;;8.88;100.00
54262;BME280;40174;52.364;6.452;2023-04-15T08:47:06;101072.63;;;8.99;100.00
54262;BME280;40174;52.364;6.452;2023-04-15T08:49:33;101072.94;;;9.07;100.00
54262;BME280;40174;52.364;6.452;2023-04-15T08:52:02;101083.69;;;9.17;100.00
54262;BME280;40174;52.364;6.452;2023-04-15T08:54:28;101082.94;;;9.15;100.00
54262;BME280;40174;52.364;6.452;2023-04-15T08:56:56;101085.03;;;9.23;100.00
54262;BME280;40174;52.364;6.452;2023-04-15T08:59:23;101079.63;;;9.37;100.00
54262;BME280;40174;52.364;6.452;2023-04-15T09:01:50;101090.38;;;9.47;100.00
54262;BME280;40174;52.364;6.452;2023-04-15T09:04:17;101098.69;;;9.53;100.00
54262;BME280;40174;52.364;6.452;2023-04-15T09:06:43;101098.47;;;9.56;100.00
54262;BME280;40174;52.364;6.452;2023-04-15T09:09:12;101102.66;;;9.59;100.00
54262;BME280;40174;52.364;6.452;2023-04-15T09:11:39;101111.56;;;9.58;100.00
54262;BME280;40174;52.364;6.452;2023-04-15T09:14:05;101110.09;;;9.54;100.00
54262;BME280;40174;52.364;6.452;2023-04-15T09:19:19;101109.13;;;9.55;100.00
54262;BME280;40174;52.364;6.452;2023-04-15T09:21:46;101108.19;;;9.56;100.00
54262;BME280;40174;52.364;6.452;2023-04-15T09:24:14;101117.78;;;9.57;100.00
54262;BME280;40174;52.364;6.452;2023-04-15T09:26:40;101115.25;;;9.55;100.00
54262;BME280;40174;52.364;6.452;2023-04-15T09:29:07;101116.53;;;9.50;100.00
54262;BME280;40174;52.364;6.452;2023-04-15T09:31:34;101125.41;;;9.49;100.00
54262;BME280;40174;52.364;6.452;2023-04-15T09:34:01;101129.13;;;9.46;100.00
54262;BME280;40174;52.364;6.452;2023-04-15T09:36:27;101129.94;;;9.47;100.00
54262;BME280;40174;52.364;6.452;2023-04-15T09:38:54;101125.50;;;9.47;100.00
54262;BME280;40174;52.364;6.452;2023-04-15T09:41:23;101126.97;;;9.51;100.00
54262;BME280;40174;52.364;6.452;2023-04-15T09:43:50;101134.47;;;9.57;100.00
54262;BME280;40174;52.364;6.452;2023-04-15T09:46:16;101135.81;;;9.63;100.00
54262;BME280;40174;52.364;6.452;2023-04-15T09:48:43;101132.00;;;9.67;100.00
54262;BME280;40174;52.364;6.452;2023-04-15T09:51:09;101145.22;;;9.67;100.00
54262;BME280;40174;52.364;6.452;2023-04-15T09:53:36;101143.19;;;9.71;100.00
54262;BME280;40174;52.364;6.452;2023-04-15T09:56:02;101147.50;;;9.72;100.00
54262;BME280;40174;52.364;6.452;2023-04-15T09:58:33;101148.25;;;9.74;100.00
54262;BME280;40174;52.364;6.452;2023-04-15T10:01:02;101156.56;;;9.81;100.00
54262;BME280;40174;52.364;6.452;2023-04-15T10:03:30;101156.88;;;9.89;100.00
54262;BME280;40174;52.364;6.452;2023-04-15T10:05:57;101156.53;;;9.93;100.00
54262;BME280;40174;52.364;6.452;2023-04-15T10:08:27;101158.38;;;10.04;100.00
54262;BME280;40174;52.364;6.452;2023-04-15T10:10:54;101153.09;;;10.04;100.00
54262;BME280;40174;52.364;6.452;2023-04-15T10:13:22;101159.84;;;10.08;100.00
54262;BME280;40174;52.364;6.452;2023-04-15T10:15:50;101160.38;;;10.13;100.00
54262;BME280;40174;52.364;6.452;2023-04-15T10:18:18;101161.94;;;10.16;100.00
54262;BME280;40174;52.364;6.452;2023-04-15T10:20:45;101157.00;;;10.11;100.00
54262;BME280;40174;52.364;6.452;2023-04-15T10:23:13;101164.69;;;10.14;100.00
54262;BME280;40174;52.364;6.452;2023-04-15T10:25:40;101153.53;;;10.22;100.00
54262;BME280;40174;52.364;6.452;2023-04-15T10:28:07;101156.72;;;10.27;100.00
54262;BME280;40174;52.364;6.452;2023-04-15T10:30:33;101161.78;;;10.30;100.00
54262;BME280;40174;52.364;6.452;2023-04-15T10:33:03;101164.34;;;10.32;100.00
54262;BME280;40174;52.364;6.452;2023-04-15T10:35:30;101163.25;;;10.34;100.00
54262;BME280;40174;52.364;6.452;2023-04-15T10:37:58;101169.03;;;10.39;100.00
54262;BME280;40174;52.364;6.452;2023-04-15T10:40:25;101171.84;;;10.49;100.00
54262;BME280;40174;52.364;6.452;2023-04-15T10:42:52;101174.16;;;10.54;100.00
54262;BME280;40174;52.364;6.452;2023-04-15T10:45:19;101168.00;;;10.53;100.00
54262;BME280;40174;52.364;6.452;2023-04-15T10:47:45;101176.91;;;10.52;100.00
54262;BME280;40174;52.364;6.452;2023-04-15T10:50:18;101167.50;;;10.48;100.00
54262;BME280;40174;52.364;6.452;2023-04-15T10:52:45;101172.91;;;10.47;100.00
54262;BME280;40174;52.364;6.452;2023-04-15T10:55:12;101181.69;;;10.47;100.00
54262;BME280;40174;52.364;6.452;2023-04-15T10:57:40;101191.53;;;10.45;100.00
54262;BME280;40174;52.364;6.452;2023-04-15T11:00:09;101187.53;;;10.39;100.00
54262;BME280;40174;52.364;6.452;2023-04-15T11:02:47;101186.78;;;10.37;100.00
54262;BME280;40174;52.364;6.452;2023-04-15T11:05:19;101193.50;;;10.30;100.00
54262;BME280;40174;52.364;6.452;2023-04-15T11:07:50;101189.50;;;10.25;100.00
54262;BME280;40174;52.364;6.452;2023-04-15T11:13:01;101202.16;;;10.19;100.00
54262;BME280;40174;52.364;6.452;2023-04-15T11:15:29;101199.03;;;10.14;100.00
54262;BME280;40174;52.364;6.452;2023-04-15T11:17:56;101195.75;;;10.11;100.00
54262;BME280;40174;52.364;6.452;2023-04-15T11:20:24;101201.91;;;10.11;100.00
54262;BME280;40174;52.364;6.452;2023-04-15T11:22:52;101201.66;;;10.14;100.00
54262;BME280;40174;52.364;6.452;2023-04-15T11:25:22;101203.97;;;10.19;100.00
54262;BME280;40174;52.364;6.452;2023-04-15T11:27:48;101198.44;;;10.22;100.00
54262;BME280;40174;52.364;6.452;2023-04-15T11:30:17;101208.50;;;10.30;100.00
54262;BME280;40174;52.364;6.452;2023-04-15T11:32:43;101210.09;;;10.32;100.00
54262;BME280;40174;52.364;6.452;2023-04-15T11:35:10;101202.56;;;10.39;100.00
54262;BME280;40174;52.364;6.452;2023-04-15T11:37:38;101208.06;;;10.36;100.00
54262;BME280;40174;52.364;6.452;2023-04-15T11:40:05;101215.88;;;10.37;100.00
54262;BME280;40174;52.364;6.452;2023-04-15T11:42:32;101211.66;;;10.35;100.00
54262;BME280;40174;52.364;6.452;2023-04-15T11:45:05;101212.63;;;10.34;100.00
54262;BME280;40174;52.364;6.452;2023-04-15T11:47:31;101221.63;;;10.31;100.00
54262;BME280;40174;52.364;6.452;2023-04-15T11:50:12;101213.97;;;10.27;100.00
54262;BME280;40174;52.364;6.452;2023-04-15T11:52:40;101219.47;;;10.24;100.00
54262;BME280;40174;52.364;6.452;2023-04-15T11:55:06;101212.53;;;10.23;100.00
54262;BME280;40174;52.364;6.452;2023-04-15T11:57:33;101214.84;;;10.27;100.00
54262;BME280;40174;52.364;6.452;2023-04-15T12:00:00;101213.97;;;10.27;100.00
54262;BME280;40174;52.364;6.452;2023-04-15T12:02:31;101221.91;;;10.27;100.00
54262;BME280;40174;52.364;6.452;2023-04-15T12:05:03;101222.56;;;10.30;100.00
54262;BME280;40174;52.364;6.452;2023-04-15T12:07:30;101226.03;;;10.31;100.00
54262;BME280;40174;52.364;6.452;2023-04-15T12:09:58;101234.50;;;10.36;100.00
54262;BME280;40174;52.364;6.452;2023-04-15T12:12:25;101231.97;;;10.34;100.00
54262;BME280;40174;52.364;6.452;2023-04-15T12:14:52;101242.75;;;10.31;100.00
54262;BME280;40174;52.364;6.452;2023-04-15T12:17:18;101245.41;;;10.31;100.00
54262;BME280;40174;52.364;6.452;2023-04-15T12:19:45;101255.50;;;10.37;100.00
54262;BME280;40174;52.364;6.452;2023-04-15T12:22:13;101248.31;;;10.39;100.00
54262;BME280;40174;52.364;6.452;2023-04-15T12:24:41;101253.81;;;10.36;100.00
54262;BME280;40174;52.364;6.452;2023-04-15T12:27:09;101263.66;;;10.34;100.00
54262;BME280;40174;52.364;6.452;2023-04-15T12:29:37;101261.41;;;10.41;100.00
54262;BME280;40174;52.364;6.452;2023-04-15T12:32:04;101265.88;;;10.40;100.00
54262;BME280;40174;52.364;6.452;2023-04-15T12:34:32;101271.00;;;10.42;100.00
54262;BME280;40174;52.364;6.452;2023-04-15T12:37:00;101275.69;;;10.38;100.00
54262;BME280;40174;52.364;6.452;2023-04-15T12:39:27;101271.00;;;10.42;100.00
54262;BME280;40174;52.364;6.452;2023-04-15T12:41:54;101274.41;;;10.44;100.00
54262;BME280;40174;52.364;6.452;2023-04-15T12:44:22;101282.22;;;10.46;100.00
54262;BME280;40174;52.364;6.452;2023-04-15T12:46:49;101281.16;;;10.48;100.00
54262;BME280;40174;52.364;6.452;2023-04-15T12:49:16;101278.50;;;10.48;100.00
54262;BME280;40174;52.364;6.452;2023-04-15T12:51:44;101288.25;;;10.48;100.00